sensor_id;sensor_type;location;lat;lon;timestamp;P1;durP1;ratioP1;P2;durP2;ratioP2
84982;SDS011;75295;45.426;9.696;2023-12-29T10:54:41;11.85;;;7.25;;
84982;SDS011;75295;45.426;9.696;2023-12-29T10:57:11;15.93;;;7.70;;
84982;SDS011;75295;45.426;9.696;2023-12-29T10:59:39;11.15;;;7.75;;
84982;SDS011;75295;45.426;9.696;2023-12-29T11:02:06;13.05;;;7.32;;
84982;SDS011;75295;45.426;9.696;2023-12-29T11:04:34;14.52;;;8.13;;
84982;SDS011;75295;45.426;9.696;2023-12-29T11:07:01;14.45;;;8.25;;
84982;SDS011;75295;45.426;9.696;2023-12-29T11:09:31;10.88;;;7.60;;
84982;SDS011;75295;45.426;9.696;2023-12-29T11:12:03;16.20;;;8.45;;
84982;SDS011;75295;45.426;9.696;2023-12-29T11:14:32;15.70;;;8.10;;
84982;SDS011;75295;45.426;9.696;2023-12-29T11:16:59;17.02;;;7.63;;
84982;SDS011;75295;45.426;9.696;2023-12-29T11:19:27;13.40;;;7.57;;
84982;SDS011;75295;45.426;9.696;2023-12-29T11:21:55;12.27;;;7.68;;
84982;SDS011;75295;45.426;9.696;2023-12-29T11:24:22;11.55;;;7.65;;
84982;SDS011;75295;45.426;9.696;2023-12-29T11:26:49;13.32;;;7.32;;
84982;SDS011;75295;45.426;9.696;2023-12-29T11:29:16;13.18;;;7.68;;
84982;SDS011;75295;45.426;9.696;2023-12-29T11:31:46;10.30;;;7.30;;
84982;SDS011;75295;45.426;9.696;2023-12-29T11:34:17;11.30;;;7.60;;
84982;SDS011;75295;45.426;9.696;2023-12-29T11:37:05;19.77;;;8.27;;
84982;SDS011;75295;45.426;9.696;2023-12-29T11:40:19;14.30;;;7.38;;
84982;SDS011;75295;45.426;9.696;2023-12-29T11:43:02;13.27;;;8.43;;
84982;SDS011;75295;45.426;9.696;2023-12-29T11:45:35;17.52;;;8.75;;
84982;SDS011;75295;45.426;9.696;2023-12-29T11:48:02;14.02;;;8.43;;
84982;SDS011;75295;45.426;9.696;2023-12-29T11:52:59;14.23;;;9.23;;
84982;SDS011;75295;45.426;9.696;2023-12-29T11:55:36;15.55;;;9.43;;
84982;SDS011;75295;45.426;9.696;2023-12-29T11:58:27;15.25;;;9.27;;
84982;SDS011;75295;45.426;9.696;2023-12-29T12:00:55;15.45;;;9.82;;
84982;SDS011;75295;45.426;9.696;2023-12-29T12:03:25;20.63;;;10.85;;
84982;SDS011;75295;45.426;9.696;2023-12-29T12:05:54;18.35;;;10.23;;
84982;SDS011;75295;45.426;9.696;2023-12-29T12:08:33;22.52;;;10.60;;
84982;SDS011;75295;45.426;9.696;2023-12-29T12:13:59;17.23;;;10.60;;
84982;SDS011;75295;45.426;9.696;2023-12-29T12:19:12;20.05;;;11.80;;
84982;SDS011;75295;45.426;9.696;2023-12-29T12:21:40;22.95;;;13.10;;
84982;SDS011;75295;45.426;9.696;2023-12-29T12:24:07;22.67;;;12.32;;
84982;SDS011;75295;45.426;9.696;2023-12-29T12:26:34;22.48;;;14.48;;
84982;SDS011;75295;45.426;9.696;2023-12-29T12:29:01;23.55;;;15.65;;
84982;SDS011;75295;45.426;9.696;2023-12-29T12:31:28;25.73;;;15.27;;
84982;SDS011;75295;45.426;9.696;2023-12-29T12:33:58;27.20;;;15.27;;
84982;SDS011;75295;45.426;9.696;2023-12-29T12:36:28;27.95;;;15.95;;
84982;SDS011;75295;45.426;9.696;2023-12-29T12:38:55;32.33;;;18.25;;
84982;SDS011;75295;45.426;9.696;2023-12-29T12:41:24;31.15;;;17.60;;
84982;SDS011;75295;45.426;9.696;2023-12-29T12:43:57;32.80;;;19.25;;
84982;SDS011;75295;45.426;9.696;2023-12-29T12:49:20;40.85;;;22.00;;
84982;SDS011;75295;45.426;9.696;2023-12-29T12:51:47;35.63;;;20.60;;
84982;SDS011;75295;45.426;9.696;2023-12-29T12:54:17;42.72;;;23.52;;
84982;SDS011;75295;45.426;9.696;2023-12-29T12:56:46;43.95;;;24.23;;
84982;SDS011;75295;45.426;9.696;2023-12-29T12:59:13;40.47;;;22.58;;
84982;SDS011;75295;45.426;9.696;2023-12-29T13:01:42;49.10;;;24.48;;
84982;SDS011;75295;45.426;9.696;2023-12-29T13:04:09;52.33;;;25.90;;
84982;SDS011;75295;45.426;9.696;2023-12-29T13:06:40;54.35;;;28.42;;
84982;SDS011;75295;45.426;9.696;2023-12-29T13:09:09;53.47;;;29.08;;
84982;SDS011;75295;45.426;9.696;2023-12-29T13:11:39;58.33;;;29.83;;
84982;SDS011;75295;45.426;9.696;2023-12-29T13:14:08;57.10;;;29.33;;
84982;SDS011;75295;45.426;9.696;2023-12-29T13:16:45;65.85;;;33.28;;
84982;SDS011;75295;45.426;9.696;2023-12-29T13:19:19;72.60;;;35.42;;
84982;SDS011;75295;45.426;9.696;2023-12-29T13:21:50;71.05;;;35.55;;
84982;SDS011;75295;45.426;9.696;2023-12-29T13:24:22;73.97;;;36.15;;
84982;SDS011;75295;45.426;9.696;2023-12-29T13:26:51;78.68;;;37.90;;
84982;SDS011;75295;45.426;9.696;2023-12-29T13:29:22;78.72;;;38.55;;
84982;SDS011;75295;45.426;9.696;2023-12-29T13:31:52;74.68;;;36.35;;
84982;SDS011;75295;45.426;9.696;2023-12-29T13:34:21;75.68;;;37.58;;
84982;SDS011;75295;45.426;9.696;2023-12-29T13:37:09;82.07;;;40.53;;
84982;SDS011;75295;45.426;9.696;2023-12-29T13:42:21;97.85;;;44.25;;
84982;SDS011;75295;45.426;9.696;2023-12-29T13:44:49;85.15;;;43.42;;
84982;SDS011;75295;45.426;9.696;2023-12-29T13:47:18;106.70;;;47.10;;
84982;SDS011;75295;45.426;9.696;2023-12-29T13:49:46;100.63;;;46.25;;
84982;SDS011;75295;45.426;9.696;2023-12-29T13:52:14;99.20;;;43.95;;
84982;SDS011;75295;45.426;9.696;2023-12-29T13:54:42;103.05;;;46.17;;
84982;SDS011;75295;45.426;9.696;2023-12-29T13:57:09;114.25;;;51.30;;
84982;SDS011;75295;45.426;9.696;2023-12-29T13:59:36;107.95;;;48.50;;
84982;SDS011;75295;45.426;9.696;2023-12-29T14:02:15;107.10;;;51.50;;
84982;SDS011;75295;45.426;9.696;2023-12-29T14:05:14;105.50;;;48.13;;
84982;SDS011;75295;45.426;9.696;2023-12-29T14:07:46;113.82;;;48.53;;
84982;SDS011;75295;45.426;9.696;2023-12-29T14:10:19;106.18;;;50.60;;
84982;SDS011;75295;45.426;9.696;2023-12-29T14:12:45;123.03;;;54.33;;
84982;SDS011;75295;45.426;9.696;2023-12-29T14:15:13;110.72;;;50.20;;
84982;SDS011;75295;45.426;9.696;2023-12-29T14:17:39;116.95;;;52.75;;
84982;SDS011;75295;45.426;9.696;2023-12-29T14:20:06;116.25;;;52.65;;
84982;SDS011;75295;45.426;9.696;2023-12-29T14:22:35;111.05;;;52.03;;
84982;SDS011;75295;45.426;9.696;2023-12-29T14:25:02;105.85;;;51.63;;
84982;SDS011;75295;45.426;9.696;2023-12-29T14:27:33;115.60;;;50.88;;
84982;SDS011;75295;45.426;9.696;2023-12-29T14:30:00;117.90;;;54.17;;
84982;SDS011;75295;45.426;9.696;2023-12-29T14:32:27;105.80;;;49.75;;
84982;SDS011;75295;45.426;9.696;2023-12-29T14:34:54;117.85;;;54.08;;
84982;SDS011;75295;45.426;9.696;2023-12-29T14:37:22;117.20;;;54.30;;
84982;SDS011;75295;45.426;9.696;2023-12-29T14:39:49;129.98;;;57.00;;
84982;SDS011;75295;45.426;9.696;2023-12-29T14:42:16;129.25;;;56.10;;
84982;SDS011;75295;45.426;9.696;2023-12-29T14:44:46;113.03;;;53.63;;
84982;SDS011;75295;45.426;9.696;2023-12-29T14:47:14;122.07;;;53.72;;
84982;SDS011;75295;45.426;9.696;2023-12-29T14:49:42;138.50;;;59.65;;
84982;SDS011;75295;45.426;9.696;2023-12-29T14:52:09;142.90;;;62.30;;
84982;SDS011;75295;45.426;9.696;2023-12-29T14:54:37;132.23;;;63.22;;
84982;SDS011;75295;45.426;9.696;2023-12-29T14:57:05;122.97;;;54.47;;
84982;SDS011;75295;45.426;9.696;2023-12-29T14:59:32;122.93;;;54.08;;
84982;SDS011;75295;45.426;9.696;2023-12-29T15:02:01;127.35;;;53.72;;
84982;SDS011;75295;45.426;9.696;2023-12-29T15:04:27;137.60;;;60.75;;
84982;SDS011;75295;45.426;9.696;2023-12-29T15:06:57;132.02;;;58.95;;
84982;SDS011;75295;45.426;9.696;2023-12-29T15:09:24;149.60;;;63.85;;
84982;SDS011;75295;45.426;9.696;2023-12-29T15:11:50;144.70;;;59.88;;
84982;SDS011;75295;45.426;9.696;2023-12-29T15:14:18;134.20;;;58.97;;
84982;SDS011;75295;45.426;9.696;2023-12-29T15:16:45;132.13;;;57.33;;
84982;SDS011;75295;45.426;9.696;2023-12-29T15:19:12;143.50;;;62.85;;
84982;SDS011;75295;45.426;9.696;2023-12-29T15:21:39;134.43;;;58.38;;
84982;SDS011;75295;45.426;9.696;2023-12-29T15:24:05;118.90;;;52.03;;
84982;SDS011;75295;45.426;9.696;2023-12-29T15:26:32;134.35;;;57.05;;
84982;SDS011;75295;45.426;9.696;2023-12-29T15:29:00;123.22;;;54.80;;
84982;SDS011;75295;45.426;9.696;2023-12-29T15:31:26;131.98;;;57.20;;
84982;SDS011;75295;45.426;9.696;2023-12-29T15:33:53;157.25;;;69.95;;
84982;SDS011;75295;45.426;9.696;2023-12-29T15:36:19;350.23;;;146.85;;
84982;SDS011;75295;45.426;9.696;2023-12-29T15:38:51;162.52;;;69.85;;
84982;SDS011;75295;45.426;9.696;2023-12-29T15:41:18;175.20;;;73.45;;
84982;SDS011;75295;45.426;9.696;2023-12-29T15:43:45;161.48;;;65.00;;
84982;SDS011;75295;45.426;9.696;2023-12-29T15:47:23;34.85;;;31.02;;
84982;SDS011;75295;45.426;9.696;2023-12-29T15:49:50;39.70;;;32.50;;
84982;SDS011;75295;45.426;9.696;2023-12-29T15:52:19;39.25;;;33.85;;
84982;SDS011;75295;45.426;9.696;2023-12-29T15:54:46;44.33;;;34.95;;
84982;SDS011;75295;45.426;9.696;2023-12-29T15:57:13;39.83;;;32.45;;
84982;SDS011;75295;45.426;9.696;2023-12-29T15:59:40;39.33;;;33.67;;
84982;SDS011;75295;45.426;9.696;2023-12-29T16:02:10;43.17;;;36.85;;
84982;SDS011;75295;45.426;9.696;2023-12-29T16:04:37;43.50;;;33.67;;
84982;SDS011;75295;45.426;9.696;2023-12-29T16:07:04;48.78;;;35.08;;
84982;SDS011;75295;45.426;9.696;2023-12-29T16:09:31;40.95;;;33.92;;
84982;SDS011;75295;45.426;9.696;2023-12-29T16:11:58;48.22;;;35.40;;
84982;SDS011;75295;45.426;9.696;2023-12-29T16:14:25;44.50;;;34.92;;
84982;SDS011;75295;45.426;9.696;2023-12-29T16:16:54;44.50;;;35.03;;
84982;SDS011;75295;45.426;9.696;2023-12-29T16:19:20;43.25;;;34.58;;
84982;SDS011;75295;45.426;9.696;2023-12-29T16:21:47;42.30;;;34.65;;
84982;SDS011;75295;45.426;9.696;2023-12-29T16:24:14;45.75;;;34.65;;
84982;SDS011;75295;45.426;9.696;2023-12-29T16:26:45;48.33;;;35.15;;
84982;SDS011;75295;45.426;9.696;2023-12-29T16:29:11;47.35;;;36.00;;
84982;SDS011;75295;45.426;9.696;2023-12-29T16:31:38;48.63;;;37.83;;
84982;SDS011;75295;45.426;9.696;2023-12-29T16:34:05;48.53;;;37.47;;
84982;SDS011;75295;45.426;9.696;2023-12-29T16:36:31;50.67;;;37.55;;
84982;SDS011;75295;45.426;9.696;2023-12-29T16:38:59;52.53;;;36.70;;
84982;SDS011;75295;45.426;9.696;2023-12-29T16:41:25;55.75;;;36.47;;
84982;SDS011;75295;45.426;9.696;2023-12-29T16:43:52;54.05;;;37.08;;
84982;SDS011;75295;45.426;9.696;2023-12-29T16:46:19;50.10;;;37.42;;
84982;SDS011;75295;45.426;9.696;2023-12-29T16:48:46;49.13;;;36.22;;
84982;SDS011;75295;45.426;9.696;2023-12-29T16:51:12;50.22;;;38.45;;
84982;SDS011;75295;45.426;9.696;2023-12-29T16:53:39;49.47;;;36.78;;
84982;SDS011;75295;45.426;9.696;2023-12-29T16:56:06;48.70;;;37.40;;
84982;SDS011;75295;45.426;9.696;2023-12-29T16:58:33;52.00;;;37.65;;
84982;SDS011;75295;45.426;9.696;2023-12-29T17:01:11;46.55;;;36.47;;
84982;SDS011;75295;45.426;9.696;2023-12-29T17:03:38;48.95;;;36.22;;
84982;SDS011;75295;45.426;9.696;2023-12-29T17:06:05;50.17;;;36.85;;
84982;SDS011;75295;45.426;9.696;2023-12-29T17:08:32;53.30;;;38.70;;
84982;SDS011;75295;45.426;9.696;2023-12-29T17:11:01;52.15;;;38.10;;
84982;SDS011;75295;45.426;9.696;2023-12-29T17:13:30;52.17;;;38.63;;
84982;SDS011;75295;45.426;9.696;2023-12-29T17:16:00;48.45;;;37.00;;
84982;SDS011;75295;45.426;9.696;2023-12-29T17:18:29;46.38;;;36.30;;
84982;SDS011;75295;45.426;9.696;2023-12-29T17:20:56;50.63;;;37.67;;
84982;SDS011;75295;45.426;9.696;2023-12-29T17:23:25;48.33;;;36.33;;
84982;SDS011;75295;45.426;9.696;2023-12-29T17:25:52;47.10;;;37.28;;
84982;SDS011;75295;45.426;9.696;2023-12-29T17:28:19;54.30;;;39.50;;
84982;SDS011;75295;45.426;9.696;2023-12-29T17:30:46;50.42;;;36.80;;
84982;SDS011;75295;45.426;9.696;2023-12-29T17:33:13;53.92;;;38.72;;
84982;SDS011;75295;45.426;9.696;2023-12-29T17:35:41;49.90;;;38.83;;
84982;SDS011;75295;45.426;9.696;2023-12-29T17:38:08;61.63;;;44.95;;
84982;SDS011;75295;45.426;9.696;2023-12-29T17:40:34;48.83;;;37.05;;
84982;SDS011;75295;45.426;9.696;2023-12-29T17:43:02;54.75;;;41.00;;
84982;SDS011;75295;45.426;9.696;2023-12-29T17:45:29;59.88;;;39.80;;
84982;SDS011;75295;45.426;9.696;2023-12-29T17:47:56;61.97;;;41.25;;
84982;SDS011;75295;45.426;9.696;2023-12-29T17:50:23;55.08;;;39.55;;
84982;SDS011;75295;45.426;9.696;2023-12-29T17:52:50;54.00;;;41.83;;
84982;SDS011;75295;45.426;9.696;2023-12-29T17:55:16;55.72;;;43.55;;
84982;SDS011;75295;45.426;9.696;2023-12-29T17:57:46;52.13;;;39.95;;
84982;SDS011;75295;45.426;9.696;2023-12-29T18:00:13;58.08;;;38.55;;
84982;SDS011;75295;45.426;9.696;2023-12-29T18:02:40;56.90;;;42.08;;
84982;SDS011;75295;45.426;9.696;2023-12-29T18:05:07;57.60;;;43.55;;
84982;SDS011;75295;45.426;9.696;2023-12-29T18:07:34;55.97;;;42.13;;
84982;SDS011;75295;45.426;9.696;2023-12-29T18:10:01;63.33;;;43.25;;
84982;SDS011;75295;45.426;9.696;2023-12-29T18:12:30;62.83;;;43.80;;
84982;SDS011;75295;45.426;9.696;2023-12-29T18:14:57;62.25;;;45.72;;
84982;SDS011;75295;45.426;9.696;2023-12-29T18:17:24;63.20;;;44.80;;
84982;SDS011;75295;45.426;9.696;2023-12-29T18:19:51;62.42;;;45.60;;
84982;SDS011;75295;45.426;9.696;2023-12-29T18:22:18;53.63;;;42.63;;
84982;SDS011;75295;45.426;9.696;2023-12-29T18:24:44;60.53;;;46.50;;
84982;SDS011;75295;45.426;9.696;2023-12-29T18:27:11;61.40;;;47.28;;
84982;SDS011;75295;45.426;9.696;2023-12-29T18:29:38;66.97;;;47.95;;
84982;SDS011;75295;45.426;9.696;2023-12-29T18:32:25;60.88;;;43.67;;
84982;SDS011;75295;45.426;9.696;2023-12-29T18:35:50;62.95;;;45.40;;
84982;SDS011;75295;45.426;9.696;2023-12-29T18:51:04;62.42;;;45.20;;
84982;SDS011;75295;45.426;9.696;2023-12-29T18:55:15;64.88;;;45.35;;
84982;SDS011;75295;45.426;9.696;2023-12-29T18:58:30;60.95;;;46.58;;
84982;SDS011;75295;45.426;9.696;2023-12-29T19:06:03;63.40;;;43.97;;
84982;SDS011;75295;45.426;9.696;2023-12-29T19:09:32;64.07;;;45.65;;
84982;SDS011;75295;45.426;9.696;2023-12-29T19:17:35;62.83;;;48.08;;
84982;SDS011;75295;45.426;9.696;2023-12-29T19:21:30;63.08;;;46.65;;
84982;SDS011;75295;45.426;9.696;2023-12-29T19:25:10;61.10;;;44.63;;
84982;SDS011;75295;45.426;9.696;2023-12-29T19:32:00;75.57;;;53.22;;
84982;SDS011;75295;45.426;9.696;2023-12-29T19:34:27;69.60;;;53.15;;
84982;SDS011;75295;45.426;9.696;2023-12-29T19:36:54;71.10;;;51.08;;
84982;SDS011;75295;45.426;9.696;2023-12-29T19:39:21;69.72;;;51.15;;
84982;SDS011;75295;45.426;9.696;2023-12-29T19:41:48;65.57;;;48.17;;
84982;SDS011;75295;45.426;9.696;2023-12-29T19:44:15;59.08;;;46.13;;
84982;SDS011;75295;45.426;9.696;2023-12-29T19:46:42;63.40;;;47.47;;
84982;SDS011;75295;45.426;9.696;2023-12-29T19:49:09;66.63;;;46.65;;
84982;SDS011;75295;45.426;9.696;2023-12-29T19:51:35;61.35;;;46.17;;
84982;SDS011;75295;45.426;9.696;2023-12-29T19:54:02;60.70;;;45.13;;
84982;SDS011;75295;45.426;9.696;2023-12-29T19:56:31;62.53;;;48.15;;
84982;SDS011;75295;45.426;9.696;2023-12-29T19:58:58;68.15;;;50.05;;
84982;SDS011;75295;45.426;9.696;2023-12-29T20:01:25;67.05;;;48.60;;
84982;SDS011;75295;45.426;9.696;2023-12-29T20:03:53;71.13;;;50.75;;
84982;SDS011;75295;45.426;9.696;2023-12-29T20:06:20;70.65;;;49.47;;
84982;SDS011;75295;45.426;9.696;2023-12-29T20:08:50;68.55;;;51.05;;
84982;SDS011;75295;45.426;9.696;2023-12-29T20:11:18;70.13;;;51.60;;
84982;SDS011;75295;45.426;9.696;2023-12-29T20:13:45;77.15;;;59.00;;
84982;SDS011;75295;45.426;9.696;2023-12-29T20:16:21;74.03;;;53.97;;
84982;SDS011;75295;45.426;9.696;2023-12-29T20:18:54;74.78;;;57.63;;
84982;SDS011;75295;45.426;9.696;2023-12-29T20:21:24;69.63;;;51.58;;
84982;SDS011;75295;45.426;9.696;2023-12-29T20:23:57;71.72;;;52.08;;
84982;SDS011;75295;45.426;9.696;2023-12-29T20:26:35;70.72;;;50.60;;
84982;SDS011;75295;45.426;9.696;2023-12-29T20:29:02;66.82;;;49.55;;
84982;SDS011;75295;45.426;9.696;2023-12-29T20:31:34;67.60;;;47.83;;
84982;SDS011;75295;45.426;9.696;2023-12-29T20:34:01;67.18;;;49.05;;
84982;SDS011;75295;45.426;9.696;2023-12-29T20:36:37;66.85;;;47.05;;
84982;SDS011;75295;45.426;9.696;2023-12-29T20:39:07;61.28;;;47.95;;
84982;SDS011;75295;45.426;9.696;2023-12-29T20:41:35;62.38;;;48.15;;
84982;SDS011;75295;45.426;9.696;2023-12-29T20:44:01;63.88;;;48.58;;
84982;SDS011;75295;45.426;9.696;2023-12-29T20:46:29;66.90;;;48.03;;
84982;SDS011;75295;45.426;9.696;2023-12-29T20:48:58;61.67;;;45.80;;
84982;SDS011;75295;45.426;9.696;2023-12-29T20:51:28;60.63;;;47.10;;
84982;SDS011;75295;45.426;9.696;2023-12-29T20:53:59;65.35;;;48.60;;
84982;SDS011;75295;45.426;9.696;2023-12-29T20:56:26;64.60;;;48.15;;
84982;SDS011;75295;45.426;9.696;2023-12-29T20:58:55;61.70;;;47.83;;
84982;SDS011;75295;45.426;9.696;2023-12-29T21:01:27;60.40;;;48.00;;
84982;SDS011;75295;45.426;9.696;2023-12-29T21:03:59;59.85;;;46.45;;
84982;SDS011;75295;45.426;9.696;2023-12-29T21:06:32;66.95;;;47.53;;
84982;SDS011;75295;45.426;9.696;2023-12-29T21:09:01;65.10;;;48.38;;
84982;SDS011;75295;45.426;9.696;2023-12-29T21:11:38;63.75;;;47.25;;
84982;SDS011;75295;45.426;9.696;2023-12-29T21:14:10;64.90;;;49.88;;
84982;SDS011;75295;45.426;9.696;2023-12-29T21:16:40;60.20;;;46.75;;
84982;SDS011;75295;45.426;9.696;2023-12-29T21:19:08;59.22;;;45.40;;
84982;SDS011;75295;45.426;9.696;2023-12-29T21:21:40;64.82;;;46.15;;
84982;SDS011;75295;45.426;9.696;2023-12-29T21:24:09;57.10;;;43.90;;
84982;SDS011;75295;45.426;9.696;2023-12-29T21:26:45;59.83;;;45.53;;
84982;SDS011;75295;45.426;9.696;2023-12-29T21:29:14;64.97;;;46.40;;
84982;SDS011;75295;45.426;9.696;2023-12-29T21:31:41;63.05;;;45.38;;
84982;SDS011;75295;45.426;9.696;2023-12-29T21:34:22;67.60;;;47.67;;
84982;SDS011;75295;45.426;9.696;2023-12-29T21:36:52;66.80;;;48.75;;
84982;SDS011;75295;45.426;9.696;2023-12-29T21:39:21;59.95;;;45.67;;
84982;SDS011;75295;45.426;9.696;2023-12-29T21:41:48;58.92;;;45.40;;
84982;SDS011;75295;45.426;9.696;2023-12-29T21:44:27;59.92;;;44.20;;
84982;SDS011;75295;45.426;9.696;2023-12-29T21:46:57;81.18;;;56.00;;
84982;SDS011;75295;45.426;9.696;2023-12-29T21:49:31;66.35;;;46.45;;
84982;SDS011;75295;45.426;9.696;2023-12-29T21:52:10;59.90;;;44.58;;
84982;SDS011;75295;45.426;9.696;2023-12-29T21:54:55;60.00;;;45.10;;
84982;SDS011;75295;45.426;9.696;2023-12-29T21:57:30;59.03;;;44.60;;
84982;SDS011;75295;45.426;9.696;2023-12-29T22:00:28;58.35;;;44.30;;
84982;SDS011;75295;45.426;9.696;2023-12-29T22:03:16;77.07;;;52.17;;
84982;SDS011;75295;45.426;9.696;2023-12-29T22:05:51;64.65;;;48.40;;
84982;SDS011;75295;45.426;9.696;2023-12-29T22:08:25;64.97;;;48.03;;
84982;SDS011;75295;45.426;9.696;2023-12-29T22:11:03;81.80;;;54.60;;
84982;SDS011;75295;45.426;9.696;2023-12-29T22:13:52;64.30;;;48.88;;
84982;SDS011;75295;45.426;9.696;2023-12-29T22:16:33;62.25;;;46.88;;
84982;SDS011;75295;45.426;9.696;2023-12-29T22:19:07;67.65;;;51.33;;
84982;SDS011;75295;45.426;9.696;2023-12-29T22:22:09;62.28;;;46.83;;
84982;SDS011;75295;45.426;9.696;2023-12-29T22:25:06;60.60;;;45.53;;
84982;SDS011;75295;45.426;9.696;2023-12-29T22:28:04;74.03;;;52.90;;
84982;SDS011;75295;45.426;9.696;2023-12-29T22:31:07;77.20;;;51.85;;
84982;SDS011;75295;45.426;9.696;2023-12-29T22:33:49;72.35;;;50.83;;
84982;SDS011;75295;45.426;9.696;2023-12-29T22:36:16;116.60;;;72.07;;
84982;SDS011;75295;45.426;9.696;2023-12-29T22:38:49;74.05;;;52.47;;
84982;SDS011;75295;45.426;9.696;2023-12-29T22:41:17;73.35;;;52.13;;
84982;SDS011;75295;45.426;9.696;2023-12-29T22:44:02;148.85;;;85.22;;
84982;SDS011;75295;45.426;9.696;2023-12-29T22:46:29;74.85;;;52.53;;
84982;SDS011;75295;45.426;9.696;2023-12-29T22:48:55;65.65;;;48.10;;
84982;SDS011;75295;45.426;9.696;2023-12-29T22:51:22;400.20;;;225.38;;
84982;SDS011;75295;45.426;9.696;2023-12-29T22:53:49;220.60;;;126.40;;
84982;SDS011;75295;45.426;9.696;2023-12-29T22:56:16;131.63;;;82.70;;
84982;SDS011;75295;45.426;9.696;2023-12-29T22:58:44;89.55;;;60.08;;
84982;SDS011;75295;45.426;9.696;2023-12-29T23:01:10;71.03;;;52.92;;
84982;SDS011;75295;45.426;9.696;2023-12-29T23:03:42;82.80;;;56.05;;
84982;SDS011;75295;45.426;9.696;2023-12-29T23:06:37;73.75;;;52.53;;
84982;SDS011;75295;45.426;9.696;2023-12-29T23:09:26;77.00;;;51.50;;
84982;SDS011;75295;45.426;9.696;2023-12-29T23:12:19;66.70;;;49.20;;
84982;SDS011;75295;45.426;9.696;2023-12-29T23:18:55;79.80;;;60.70;;
84982;SDS011;75295;45.426;9.696;2023-12-29T23:21:23;73.78;;;56.03;;
84982;SDS011;75295;45.426;9.696;2023-12-29T23:25:10;78.13;;;56.27;;
84982;SDS011;75295;45.426;9.696;2023-12-29T23:27:37;77.28;;;54.03;;
84982;SDS011;75295;45.426;9.696;2023-12-29T23:30:04;70.15;;;49.63;;
84982;SDS011;75295;45.426;9.696;2023-12-29T23:32:32;68.47;;;50.30;;
84982;SDS011;75295;45.426;9.696;2023-12-29T23:35:00;67.15;;;50.47;;
84982;SDS011;75295;45.426;9.696;2023-12-29T23:37:27;68.78;;;50.38;;
84982;SDS011;75295;45.426;9.696;2023-12-29T23:39:54;70.15;;;50.15;;
84982;SDS011;75295;45.426;9.696;2023-12-29T23:42:21;63.42;;;46.40;;
84982;SDS011;75295;45.426;9.696;2023-12-29T23:44:49;64.25;;;48.55;;
84982;SDS011;75295;45.426;9.696;2023-12-29T23:47:15;73.38;;;48.28;;
84982;SDS011;75295;45.426;9.696;2023-12-29T23:49:42;64.35;;;48.78;;
84982;SDS011;75295;45.426;9.696;2023-12-29T23:52:10;69.60;;;50.55;;
84982;SDS011;75295;45.426;9.696;2023-12-29T23:54:37;66.65;;;49.83;;
84982;SDS011;75295;45.426;9.696;2023-12-29T23:57:04;66.57;;;48.50;;
84982;SDS011;75295;45.426;9.696;2023-12-29T23:59:31;65.63;;;49.35;;
